Time;durP1;ratioP1;P1;durP2;ratioP2;P2;SDS_P1;SDS_P2;PMS_P1;PMS_P2;Temp;Humidity;BMP_temperature;BMP_pressure;BME280_temperature;BME280_humidity;BME280_pressure;Samples;Min_cycle;Max_cycle;Signal;HPM_P1;HPM_P2
2022/12/17 18:54:14;;;;;;;;;;;;;;;-6.69;68.92;99260.59;5214598;23;19928;-66
2022/12/17 18:56:39;;;;;;;;;;;;;;;-6.79;68.02;99258.72;4866441;29;19920;-66
2022/12/17 18:59:04;;;;;;;;;;;;;;;-6.85;67.69;99256.91;4880642;29;19945;-68
2022/12/17 19:01:30;;;;;;;;;;;;;;;-6.94;67.64;99260.16;4878800;29;20007;-67
2022/12/17 19:03:55;;;;;;;;;;;;;;;-7.01;68.88;99268.53;4861251;29;19924;-67
2022/12/17 19:06:21;;;;;;;;;;;;;;;-7.00;69.16;99271.94;4855789;29;20373;-67
2022/12/17 19:08:46;;;;;;;;;;;;;;;-6.97;69.59;99277.94;4853830;29;19919;-68
2022/12/17 19:11:12;;;;;;;;;;;;;;;-6.99;69.47;99287.25;4856488;29;19924;-67
2022/12/17 19:13:37;;;;;;;;;;;;;;;-7.04;67.81;99283.78;4872797;29;19916;-67
2022/12/17 19:16:06;;;;;;;;;;;;;;;-7.10;68.90;99282.78;4854308;29;20006;-67
2022/12/17 19:18:31;;;;;;;;;;;;;;;-7.14;68.24;99279.31;4859049;29;19920;-67
2022/12/17 19:20:57;;;;;;;;;;;;;;;-7.17;67.98;99282.66;4853743;29;19916;-66
2022/12/17 19:23:22;;;;;;;;;;;;;;;-7.15;69.74;99289.50;4850121;29;20389;-68
2022/12/17 19:25:47;;;;;;;;;;;;;;;-7.20;68.33;99284.31;4853324;29;19916;-66
2022/12/17 19:28:12;;;;;;;;;;;;;;;-7.18;69.12;99283.50;4866545;29;19963;-67
2022/12/17 19:30:38;;;;;;;;;;;;;;;-7.15;69.18;99290.38;4855940;29;19920;-67
2022/12/17 19:33:06;;;;;;;;;;;;;;;-7.22;67.65;99301.28;4858281;29;20124;-67
2022/12/17 19:35:33;;;;;;;;;;;;;;;-7.22;70.01;99303.81;4860209;29;19920;-67
2022/12/17 19:37:58;;;;;;;;;;;;;;;-7.21;69.46;99303.84;4859175;29;19916;-66
2022/12/17 19:40:24;;;;;;;;;;;;;;;-7.24;69.59;99306.34;4858444;29;19938;-67
2022/12/17 19:42:49;;;;;;;;;;;;;;;-7.35;67.09;99299.31;4858175;29;19916;-67
2022/12/17 19:45:14;;;;;;;;;;;;;;;-7.41;67.77;99308.53;4862278;29;19922;-66
2022/12/17 19:47:39;;;;;;;;;;;;;;;-7.45;67.12;99304.22;4857762;29;20011;-67
2022/12/17 19:50:05;;;;;;;;;;;;;;;-7.54;66.70;99298.06;4859063;29;20003;-67
2022/12/17 19:52:30;;;;;;;;;;;;;;;-7.56;68.17;99298.03;4859715;29;19948;-66
2022/12/17 19:54:55;;;;;;;;;;;;;;;-7.57;68.68;99301.41;4858617;29;19955;-66
2022/12/17 19:57:20;;;;;;;;;;;;;;;-7.51;70.26;99306.63;4859972;29;20376;-66
2022/12/17 19:59:46;;;;;;;;;;;;;;;-7.56;69.52;99313.31;4872098;29;20010;-67
2022/12/17 20:02:11;;;;;;;;;;;;;;;-7.54;68.72;99316.75;4867442;29;20031;-66
2022/12/17 20:04:36;;;;;;;;;;;;;;;-7.57;68.79;99319.25;4860151;29;20054;-66
2022/12/17 20:07:01;;;;;;;;;;;;;;;-7.65;68.21;99320.75;4875311;29;19947;-66
2022/12/17 20:09:27;;;;;;;;;;;;;;;-7.62;67.79;99315.75;4853738;29;19958;-66
2022/12/17 20:11:52;;;;;;;;;;;;;;;-7.63;68.16;99305.53;4867953;29;20003;-66
2022/12/17 20:14:21;;;;;;;;;;;;;;;-7.73;67.77;99294.28;4858368;29;19960;-66
2022/12/17 20:16:46;;;;;;;;;;;;;;;-7.75;68.29;99303.56;4856686;29;19980;-66
2022/12/17 20:19:12;;;;;;;;;;;;;;;-7.79;67.43;99304.31;4859847;29;19916;-66
2022/12/17 20:21:37;;;;;;;;;;;;;;;-7.86;66.91;99302.47;4856909;29;20294;-66
2022/12/17 20:24:03;;;;;;;;;;;;;;;-7.84;68.92;99301.69;4853981;29;19925;-65
2022/12/17 20:26:28;;;;;;;;;;;;;;;-7.79;69.45;99304.31;4839454;29;19923;-66
2022/12/17 20:28:53;;;;;;;;;;;;;;;-7.86;68.97;99302.47;4856557;29;19916;-65
2022/12/17 20:31:18;;;;;;;;;;;;;;;-7.89;66.80;99306.66;4857776;29;19916;-66
2022/12/17 20:33:43;;;;;;;;;;;;;;;-7.88;67.75;99302.41;4859390;29;19975;-66
2022/12/17 20:36:10;;;;;;;;;;;;;;;-7.89;67.97;99309.19;4856964;29;19924;-66
2022/12/17 20:38:36;;;;;;;;;;;;;;;-7.99;65.92;99302.19;4859921;29;19916;-66
2022/12/17 20:41:01;;;;;;;;;;;;;;;-8.06;65.78;99302.88;4862744;29;20380;-66
2022/12/17 20:43:26;;;;;;;;;;;;;;;-8.11;64.47;99299.38;4868088;29;20559;-66
2022/12/17 20:45:54;;;;;;;;;;;;;;;-8.18;64.61;99307.69;4863753;29;20422;-66
2022/12/17 20:48:19;;;;;;;;;;;;;;;-8.17;67.11;99301.75;4865953;29;20406;-66
2022/12/17 20:50:44;;;;;;;;;;;;;;;-8.22;66.30;99306.75;4858851;29;19920;-66
2022/12/17 20:53:10;;;;;;;;;;;;;;;-8.23;66.30;99309.25;4858189;29;21335;-66
2022/12/17 20:55:35;;;;;;;;;;;;;;;-8.25;66.47;99311.78;4857089;29;20016;-66
2022/12/17 20:58:00;;;;;;;;;;;;;;;-8.30;66.88;99310.78;4858931;29;19916;-66
2022/12/17 21:00:25;;;;;;;;;;;;;;;-8.37;66.44;99311.47;4860497;29;20054;-66
2022/12/17 21:02:50;;;;;;;;;;;;;;;-8.39;66.37;99316.56;4861439;29;19924;-66
2022/12/17 21:05:16;;;;;;;;;;;;;;;-8.40;65.79;99314.81;4862123;29;19920;-66
2022/12/17 21:07:42;;;;;;;;;;;;;;;-8.47;65.49;99315.50;4856578;29;19916;-65
2022/12/17 21:10:07;;;;;;;;;;;;;;;-8.58;64.90;99327.09;4858697;29;19916;-66
2022/12/17 21:13:27;;;;;;;;;;;;;;;-8.52;68.44;99317.06;4856350;29;19920;-65
2022/12/17 21:15:18;;;;;;;;;;;;;;;-8.56;66.53;99322.91;4865780;29;19927;-66
2022/12/17 21:17:43;;;;;;;;;;;;;;;-8.65;65.82;99322.66;4858850;29;19916;-66
2022/12/17 21:20:08;;;;;;;;;;;;;;;-8.71;67.60;99322.50;4860383;29;19942;-66
2022/12/17 21:22:34;;;;;;;;;;;;;;;-8.71;65.74;99322.50;4859383;29;19955;-67
2022/12/17 21:24:59;;;;;;;;;;;;;;;-8.68;67.48;99327.66;4862687;29;19968;-66
2022/12/17 21:27:24;;;;;;;;;;;;;;;-8.62;66.72;99333.78;4861411;29;19962;-66
2022/12/17 21:29:49;;;;;;;;;;;;;;;-8.66;67.74;99337.06;4860508;29;19955;-67
2022/12/17 21:32:15;;;;;;;;;;;;;;;-8.73;66.32;99349.59;4862471;29;19956;-66
2022/12/17 21:34:40;;;;;;;;;;;;;;;-8.69;67.09;99343.75;4861111;29;19962;-67
2022/12/17 21:37:06;;;;;;;;;;;;;;;-8.70;67.33;99357.31;4863239;29;19988;-66
2022/12/17 21:39:31;;;;;;;;;;;;;;;-8.70;67.19;99358.16;4858762;29;19920;-66
2022/12/17 21:44:40;;;;;;;;;;;;;;;-8.69;65.80;99361.56;4868958;29;19922;-64
2022/12/17 21:47:05;;;;;;;;;;;;;;;-8.69;66.90;99362.44;4862870;29;19916;-66
2022/12/17 21:49:30;;;;;;;;;;;;;;;-8.71;66.16;99355.56;4857667;29;19920;-66
2022/12/17 21:51:57;;;;;;;;;;;;;;;-8.68;66.99;99368.38;4858075;29;20044;-67
2022/12/17 21:54:23;;;;;;;;;;;;;;;-8.77;67.15;99363.03;4863341;29;19968;-66
2022/12/17 21:56:48;;;;;;;;;;;;;;;-8.76;67.41;99375.81;4849640;29;19923;-66
2022/12/17 21:59:13;;;;;;;;;;;;;;;-8.82;65.35;99377.31;4860968;29;20064;-67
2022/12/17 22:01:38;;;;;;;;;;;;;;;-8.75;66.88;99386.84;4856641;29;19947;-66
2022/12/17 22:04:04;;;;;;;;;;;;;;;-8.77;66.27;99381.72;4860442;29;19950;-66
2022/12/17 22:06:29;;;;;;;;;;;;;;;-8.85;65.10;99381.47;4855718;29;19956;-66
2022/12/17 22:08:56;;;;;;;;;;;;;;;-8.92;63.65;99387.22;4862817;29;19955;-67
2022/12/17 22:11:22;;;;;;;;;;;;;;;-8.99;65.00;99387.03;4857608;29;19916;-66
2022/12/17 22:14:05;;;;;;;;;;;;;;;-9.08;65.05;99395.25;4859417;29;19955;-66
2022/12/17 22:16:32;;;;;;;;;;;;;;;-9.20;64.92;99392.34;4859769;29;19967;-67
2022/12/17 22:18:58;;;;;;;;;;;;;;;-9.10;66.62;99401.97;4859222;29;20269;-66
